sensor_id;sensor_type;location;lat;lon;timestamp;P1;durP1;ratioP1;P2;durP2;ratioP2
14665;SDS011;7420;53.574;10.040;2023-07-24T00:01:08;4.00;;;3.90;;
14665;SDS011;7420;53.574;10.040;2023-07-24T00:03:33;4.20;;;4.00;;
14665;SDS011;7420;53.574;10.040;2023-07-24T00:05:59;4.00;;;3.90;;
14665;SDS011;7420;53.574;10.040;2023-07-24T00:08:24;4.00;;;3.90;;
14665;SDS011;7420;53.574;10.040;2023-07-24T00:10:50;4.00;;;3.90;;
14665;SDS011;7420;53.574;10.040;2023-07-24T00:13:15;4.20;;;4.00;;
14665;SDS011;7420;53.574;10.040;2023-07-24T00:15:41;4.43;;;4.22;;
14665;SDS011;7420;53.574;10.040;2023-07-24T00:18:06;4.00;;;3.90;;
14665;SDS011;7420;53.574;10.040;2023-07-24T00:20:32;4.05;;;3.95;;
14665;SDS011;7420;53.574;10.040;2023-07-24T00:22:58;4.00;;;3.90;;
14665;SDS011;7420;53.574;10.040;2023-07-24T00:25:23;3.95;;;3.85;;
14665;SDS011;7420;53.574;10.040;2023-07-24T00:27:49;3.90;;;3.80;;
14665;SDS011;7420;53.574;10.040;2023-07-24T00:30:14;4.15;;;4.00;;
14665;SDS011;7420;53.574;10.040;2023-07-24T00:32:40;4.00;;;3.90;;
14665;SDS011;7420;53.574;10.040;2023-07-24T00:35:06;4.00;;;3.90;;
14665;SDS011;7420;53.574;10.040;2023-07-24T00:37:32;4.20;;;4.00;;
14665;SDS011;7420;53.574;10.040;2023-07-24T00:39:57;4.20;;;4.00;;
14665;SDS011;7420;53.574;10.040;2023-07-24T00:42:23;4.05;;;3.92;;
14665;SDS011;7420;53.574;10.040;2023-07-24T00:44:48;4.38;;;4.18;;
14665;SDS011;7420;53.574;10.040;2023-07-24T00:47:14;4.30;;;4.10;;
14665;SDS011;7420;53.574;10.040;2023-07-24T00:49:39;4.40;;;4.20;;
14665;SDS011;7420;53.574;10.040;2023-07-24T00:52:06;4.47;;;4.28;;
14665;SDS011;7420;53.574;10.040;2023-07-24T00:54:32;4.00;;;3.90;;
14665;SDS011;7420;53.574;10.040;2023-07-24T00:56:59;4.40;;;4.20;;
14665;SDS011;7420;53.574;10.040;2023-07-24T00:59:26;4.38;;;4.18;;
14665;SDS011;7420;53.574;10.040;2023-07-24T01:01:51;4.10;;;4.00;;
14665;SDS011;7420;53.574;10.040;2023-07-24T01:04:17;4.13;;;4.00;;
14665;SDS011;7420;53.574;10.040;2023-07-24T01:06:43;4.20;;;4.00;;
14665;SDS011;7420;53.574;10.040;2023-07-24T01:09:09;4.20;;;4.00;;
14665;SDS011;7420;53.574;10.040;2023-07-24T01:14:34;4.00;;;3.90;;
14665;SDS011;7420;53.574;10.040;2023-07-24T01:17:06;4.30;;;4.10;;
14665;SDS011;7420;53.574;10.040;2023-07-24T01:19:37;4.07;;;3.97;;
14665;SDS011;7420;53.574;10.040;2023-07-24T01:27:42;4.30;;;4.10;;
14665;SDS011;7420;53.574;10.040;2023-07-24T01:30:08;4.38;;;4.18;;
14665;SDS011;7420;53.574;10.040;2023-07-24T01:32:34;4.20;;;4.00;;
14665;SDS011;7420;53.574;10.040;2023-07-24T01:35:00;4.20;;;4.00;;
14665;SDS011;7420;53.574;10.040;2023-07-24T01:37:26;4.00;;;3.90;;
14665;SDS011;7420;53.574;10.040;2023-07-24T01:39:53;4.20;;;4.00;;
14665;SDS011;7420;53.574;10.040;2023-07-24T01:42:20;4.20;;;4.00;;
14665;SDS011;7420;53.574;10.040;2023-07-24T01:44:50;4.20;;;4.00;;
14665;SDS011;7420;53.574;10.040;2023-07-24T01:47:17;4.20;;;4.00;;
14665;SDS011;7420;53.574;10.040;2023-07-24T01:49:42;4.03;;;3.92;;
14665;SDS011;7420;53.574;10.040;2023-07-24T01:52:08;4.20;;;4.00;;
14665;SDS011;7420;53.574;10.040;2023-07-24T01:54:33;4.40;;;4.20;;
14665;SDS011;7420;53.574;10.040;2023-07-24T01:56:59;3.97;;;3.88;;
14665;SDS011;7420;53.574;10.040;2023-07-24T01:59:24;4.30;;;4.10;;
14665;SDS011;7420;53.574;10.040;2023-07-24T02:01:50;4.00;;;3.90;;
14665;SDS011;7420;53.574;10.040;2023-07-24T02:04:15;4.25;;;4.05;;
14665;SDS011;7420;53.574;10.040;2023-07-24T02:06:41;4.00;;;3.90;;
14665;SDS011;7420;53.574;10.040;2023-07-24T02:09:07;4.20;;;4.00;;
14665;SDS011;7420;53.574;10.040;2023-07-24T02:11:32;4.05;;;3.92;;
14665;SDS011;7420;53.574;10.040;2023-07-24T02:13:58;4.20;;;4.00;;
14665;SDS011;7420;53.574;10.040;2023-07-24T02:16:24;3.90;;;3.80;;
14665;SDS011;7420;53.574;10.040;2023-07-24T02:18:49;4.00;;;3.90;;
14665;SDS011;7420;53.574;10.040;2023-07-24T02:21:15;4.00;;;3.90;;
14665;SDS011;7420;53.574;10.040;2023-07-24T02:23:40;4.38;;;4.18;;
14665;SDS011;7420;53.574;10.040;2023-07-24T02:26:06;4.07;;;3.97;;
14665;SDS011;7420;53.574;10.040;2023-07-24T02:28:31;4.10;;;4.00;;
14665;SDS011;7420;53.574;10.040;2023-07-24T02:30:57;4.25;;;4.07;;
14665;SDS011;7420;53.574;10.040;2023-07-24T02:33:24;4.10;;;4.00;;
14665;SDS011;7420;53.574;10.040;2023-07-24T02:35:51;4.00;;;3.90;;
14665;SDS011;7420;53.574;10.040;2023-07-24T02:38:17;4.30;;;4.10;;
14665;SDS011;7420;53.574;10.040;2023-07-24T02:40:43;4.28;;;4.07;;
14665;SDS011;7420;53.574;10.040;2023-07-24T02:43:09;4.10;;;4.00;;
14665;SDS011;7420;53.574;10.040;2023-07-24T02:45:34;4.00;;;3.90;;
14665;SDS011;7420;53.574;10.040;2023-07-24T02:48:00;4.15;;;3.97;;
14665;SDS011;7420;53.574;10.040;2023-07-24T02:50:27;4.30;;;4.10;;
14665;SDS011;7420;53.574;10.040;2023-07-24T02:52:53;4.25;;;4.05;;
14665;SDS011;7420;53.574;10.040;2023-07-24T02:55:18;4.40;;;4.20;;
14665;SDS011;7420;53.574;10.040;2023-07-24T02:57:44;4.20;;;4.00;;
14665;SDS011;7420;53.574;10.040;2023-07-24T03:00:10;4.15;;;4.00;;
14665;SDS011;7420;53.574;10.040;2023-07-24T03:02:36;4.20;;;4.00;;
14665;SDS011;7420;53.574;10.040;2023-07-24T03:05:01;4.20;;;4.00;;
14665;SDS011;7420;53.574;10.040;2023-07-24T03:07:28;4.30;;;4.10;;
14665;SDS011;7420;53.574;10.040;2023-07-24T03:09:53;4.00;;;3.90;;
14665;SDS011;7420;53.574;10.040;2023-07-24T03:12:19;4.30;;;4.10;;
14665;SDS011;7420;53.574;10.040;2023-07-24T03:14:45;4.30;;;4.10;;
14665;SDS011;7420;53.574;10.040;2023-07-24T03:17:11;4.30;;;4.10;;
14665;SDS011;7420;53.574;10.040;2023-07-24T03:19:37;4.00;;;3.90;;
14665;SDS011;7420;53.574;10.040;2023-07-24T03:22:02;4.35;;;4.15;;
14665;SDS011;7420;53.574;10.040;2023-07-24T03:24:28;4.00;;;3.90;;
14665;SDS011;7420;53.574;10.040;2023-07-24T03:26:53;4.13;;;4.00;;
14665;SDS011;7420;53.574;10.040;2023-07-24T03:29:19;4.32;;;4.13;;
14665;SDS011;7420;53.574;10.040;2023-07-24T03:31:44;4.30;;;4.10;;
14665;SDS011;7420;53.574;10.040;2023-07-24T03:34:10;4.20;;;4.00;;
14665;SDS011;7420;53.574;10.040;2023-07-24T03:36:36;4.05;;;3.95;;
14665;SDS011;7420;53.574;10.040;2023-07-24T03:39:02;4.00;;;3.90;;
14665;SDS011;7420;53.574;10.040;2023-07-24T03:41:27;4.00;;;3.90;;
14665;SDS011;7420;53.574;10.040;2023-07-24T03:43:53;4.00;;;3.90;;
14665;SDS011;7420;53.574;10.040;2023-07-24T03:46:18;4.50;;;4.30;;
14665;SDS011;7420;53.574;10.040;2023-07-24T03:48:44;4.00;;;3.90;;
14665;SDS011;7420;53.574;10.040;2023-07-24T03:51:09;4.00;;;3.90;;
14665;SDS011;7420;53.574;10.040;2023-07-24T03:53:35;4.20;;;4.00;;
14665;SDS011;7420;53.574;10.040;2023-07-24T03:56:01;4.15;;;3.97;;
14665;SDS011;7420;53.574;10.040;2023-07-24T03:58:26;4.00;;;3.90;;
14665;SDS011;7420;53.574;10.040;2023-07-24T04:00:52;4.00;;;3.90;;
14665;SDS011;7420;53.574;10.040;2023-07-24T04:03:17;4.30;;;4.10;;
14665;SDS011;7420;53.574;10.040;2023-07-24T04:05:43;4.00;;;3.90;;
14665;SDS011;7420;53.574;10.040;2023-07-24T04:08:08;4.13;;;4.00;;
14665;SDS011;7420;53.574;10.040;2023-07-24T04:10:34;4.53;;;4.32;;
14665;SDS011;7420;53.574;10.040;2023-07-24T04:13:00;4.07;;;3.92;;
14665;SDS011;7420;53.574;10.040;2023-07-24T04:15:25;4.00;;;3.90;;
14665;SDS011;7420;53.574;10.040;2023-07-24T04:17:50;4.18;;;4.03;;
14665;SDS011;7420;53.574;10.040;2023-07-24T04:20:16;3.90;;;3.80;;
14665;SDS011;7420;53.574;10.040;2023-07-24T04:22:41;4.00;;;3.90;;
14665;SDS011;7420;53.574;10.040;2023-07-24T04:25:07;4.00;;;3.90;;
14665;SDS011;7420;53.574;10.040;2023-07-24T04:27:33;4.20;;;4.00;;
14665;SDS011;7420;53.574;10.040;2023-07-24T04:29:58;4.65;;;4.45;;
14665;SDS011;7420;53.574;10.040;2023-07-24T04:32:25;3.90;;;3.80;;
14665;SDS011;7420;53.574;10.040;2023-07-24T04:34:51;4.05;;;3.95;;
14665;SDS011;7420;53.574;10.040;2023-07-24T04:37:17;4.32;;;4.13;;
14665;SDS011;7420;53.574;10.040;2023-07-24T04:39:42;4.00;;;3.90;;
14665;SDS011;7420;53.574;10.040;2023-07-24T04:42:08;4.00;;;3.90;;
14665;SDS011;7420;53.574;10.040;2023-07-24T04:44:33;4.07;;;3.95;;
14665;SDS011;7420;53.574;10.040;2023-07-24T04:46:59;4.20;;;4.00;;
14665;SDS011;7420;53.574;10.040;2023-07-24T04:49:24;4.00;;;3.90;;
14665;SDS011;7420;53.574;10.040;2023-07-24T04:51:50;4.00;;;3.90;;
14665;SDS011;7420;53.574;10.040;2023-07-24T04:54:16;4.20;;;4.00;;
14665;SDS011;7420;53.574;10.040;2023-07-24T04:56:42;3.95;;;3.85;;
14665;SDS011;7420;53.574;10.040;2023-07-24T04:59:08;4.00;;;3.90;;
14665;SDS011;7420;53.574;10.040;2023-07-24T05:01:33;4.30;;;4.10;;
14665;SDS011;7420;53.574;10.040;2023-07-24T05:03:59;4.00;;;3.90;;
14665;SDS011;7420;53.574;10.040;2023-07-24T05:06:24;4.00;;;3.90;;
14665;SDS011;7420;53.574;10.040;2023-07-24T05:08:52;4.03;;;3.92;;
14665;SDS011;7420;53.574;10.040;2023-07-24T05:11:18;4.00;;;3.90;;
14665;SDS011;7420;53.574;10.040;2023-07-24T05:13:43;4.20;;;4.00;;
14665;SDS011;7420;53.574;10.040;2023-07-24T05:16:09;4.15;;;4.00;;
14665;SDS011;7420;53.574;10.040;2023-07-24T05:18:34;3.90;;;3.80;;
14665;SDS011;7420;53.574;10.040;2023-07-24T05:21:00;4.18;;;4.00;;
14665;SDS011;7420;53.574;10.040;2023-07-24T05:23:25;4.00;;;3.90;;
14665;SDS011;7420;53.574;10.040;2023-07-24T05:26:01;4.25;;;4.05;;
14665;SDS011;7420;53.574;10.040;2023-07-24T05:28:28;4.20;;;4.00;;
14665;SDS011;7420;53.574;10.040;2023-07-24T05:30:55;4.00;;;3.90;;
14665;SDS011;7420;53.574;10.040;2023-07-24T05:33:20;3.95;;;3.85;;
14665;SDS011;7420;53.574;10.040;2023-07-24T05:35:46;4.00;;;3.90;;
14665;SDS011;7420;53.574;10.040;2023-07-24T05:38:11;3.90;;;3.80;;
14665;SDS011;7420;53.574;10.040;2023-07-24T05:40:37;3.90;;;3.80;;
14665;SDS011;7420;53.574;10.040;2023-07-24T05:43:02;4.00;;;3.90;;
14665;SDS011;7420;53.574;10.040;2023-07-24T05:45:29;4.00;;;3.90;;
14665;SDS011;7420;53.574;10.040;2023-07-24T05:47:54;4.00;;;3.90;;
14665;SDS011;7420;53.574;10.040;2023-07-24T05:50:19;4.00;;;3.90;;
14665;SDS011;7420;53.574;10.040;2023-07-24T05:52:45;4.07;;;3.97;;
14665;SDS011;7420;53.574;10.040;2023-07-24T05:55:11;3.90;;;3.80;;
14665;SDS011;7420;53.574;10.040;2023-07-24T05:57:36;4.15;;;4.00;;
14665;SDS011;7420;53.574;10.040;2023-07-24T06:00:04;4.10;;;4.00;;
14665;SDS011;7420;53.574;10.040;2023-07-24T06:02:30;3.90;;;3.80;;
14665;SDS011;7420;53.574;10.040;2023-07-24T06:04:56;4.20;;;4.03;;
14665;SDS011;7420;53.574;10.040;2023-07-24T06:07:22;3.90;;;3.80;;
14665;SDS011;7420;53.574;10.040;2023-07-24T06:09:48;3.90;;;3.80;;
14665;SDS011;7420;53.574;10.040;2023-07-24T06:12:13;3.90;;;3.80;;
14665;SDS011;7420;53.574;10.040;2023-07-24T06:14:39;4.55;;;4.35;;
14665;SDS011;7420;53.574;10.040;2023-07-24T06:17:05;4.00;;;3.90;;
14665;SDS011;7420;53.574;10.040;2023-07-24T06:19:30;4.00;;;3.90;;
14665;SDS011;7420;53.574;10.040;2023-07-24T06:21:56;3.90;;;3.80;;
14665;SDS011;7420;53.574;10.040;2023-07-24T06:24:21;4.03;;;3.92;;
14665;SDS011;7420;53.574;10.040;2023-07-24T06:26:48;3.90;;;3.80;;
14665;SDS011;7420;53.574;10.040;2023-07-24T06:29:14;4.10;;;4.00;;
14665;SDS011;7420;53.574;10.040;2023-07-24T06:31:40;3.80;;;3.70;;
14665;SDS011;7420;53.574;10.040;2023-07-24T06:34:05;3.90;;;3.80;;
14665;SDS011;7420;53.574;10.040;2023-07-24T06:36:31;3.90;;;3.80;;
14665;SDS011;7420;53.574;10.040;2023-07-24T06:38:56;3.92;;;3.83;;
14665;SDS011;7420;53.574;10.040;2023-07-24T06:41:21;4.07;;;3.97;;
14665;SDS011;7420;53.574;10.040;2023-07-24T06:43:48;3.80;;;3.70;;
14665;SDS011;7420;53.574;10.040;2023-07-24T06:46:14;4.00;;;3.90;;
14665;SDS011;7420;53.574;10.040;2023-07-24T06:48:39;3.97;;;3.88;;
14665;SDS011;7420;53.574;10.040;2023-07-24T06:51:05;3.90;;;3.80;;
14665;SDS011;7420;53.574;10.040;2023-07-24T06:53:30;4.07;;;3.97;;
14665;SDS011;7420;53.574;10.040;2023-07-24T06:55:56;3.90;;;3.80;;
14665;SDS011;7420;53.574;10.040;2023-07-24T06:58:21;4.07;;;3.97;;
14665;SDS011;7420;53.574;10.040;2023-07-24T07:00:47;4.03;;;3.92;;
14665;SDS011;7420;53.574;10.040;2023-07-24T07:03:12;4.05;;;3.95;;
14665;SDS011;7420;53.574;10.040;2023-07-24T07:05:38;4.18;;;4.05;;
14665;SDS011;7420;53.574;10.040;2023-07-24T07:08:03;3.88;;;3.78;;
14665;SDS011;7420;53.574;10.040;2023-07-24T07:10:30;4.05;;;3.90;;
14665;SDS011;7420;53.574;10.040;2023-07-24T07:12:56;3.80;;;3.70;;
14665;SDS011;7420;53.574;10.040;2023-07-24T07:15:21;4.00;;;3.90;;
14665;SDS011;7420;53.574;10.040;2023-07-24T07:17:47;4.00;;;3.90;;
14665;SDS011;7420;53.574;10.040;2023-07-24T07:20:12;3.90;;;3.80;;
14665;SDS011;7420;53.574;10.040;2023-07-24T07:22:37;4.00;;;3.90;;
14665;SDS011;7420;53.574;10.040;2023-07-24T07:25:03;3.90;;;3.80;;
14665;SDS011;7420;53.574;10.040;2023-07-24T07:27:29;4.35;;;4.15;;
14665;SDS011;7420;53.574;10.040;2023-07-24T07:29:54;4.10;;;4.00;;
14665;SDS011;7420;53.574;10.040;2023-07-24T07:32:20;4.03;;;3.92;;
14665;SDS011;7420;53.574;10.040;2023-07-24T07:34:45;4.03;;;3.90;;
14665;SDS011;7420;53.574;10.040;2023-07-24T07:37:11;4.20;;;4.05;;
14665;SDS011;7420;53.574;10.040;2023-07-24T07:39:36;4.03;;;3.92;;
14665;SDS011;7420;53.574;10.040;2023-07-24T07:42:01;3.92;;;3.83;;
14665;SDS011;7420;53.574;10.040;2023-07-24T07:44:27;4.00;;;3.90;;
14665;SDS011;7420;53.574;10.040;2023-07-24T07:46:53;4.00;;;3.90;;
14665;SDS011;7420;53.574;10.040;2023-07-24T07:49:18;4.30;;;4.10;;
14665;SDS011;7420;53.574;10.040;2023-07-24T07:51:44;4.10;;;4.00;;
14665;SDS011;7420;53.574;10.040;2023-07-24T07:54:09;3.90;;;3.80;;
14665;SDS011;7420;53.574;10.040;2023-07-24T07:56:35;4.00;;;3.90;;
14665;SDS011;7420;53.574;10.040;2023-07-24T07:59:00;4.00;;;3.90;;
14665;SDS011;7420;53.574;10.040;2023-07-24T08:01:26;4.00;;;3.90;;
14665;SDS011;7420;53.574;10.040;2023-07-24T08:03:51;3.90;;;3.80;;
14665;SDS011;7420;53.574;10.040;2023-07-24T08:06:17;3.80;;;3.70;;
14665;SDS011;7420;53.574;10.040;2023-07-24T08:08:42;3.88;;;3.78;;
14665;SDS011;7420;53.574;10.040;2023-07-24T08:11:07;3.83;;;3.72;;
14665;SDS011;7420;53.574;10.040;2023-07-24T08:13:33;3.90;;;3.80;;
14665;SDS011;7420;53.574;10.040;2023-07-24T08:15:59;4.40;;;4.20;;
14665;SDS011;7420;53.574;10.040;2023-07-24T08:18:26;3.90;;;3.80;;
14665;SDS011;7420;53.574;10.040;2023-07-24T08:20:51;4.07;;;3.97;;
14665;SDS011;7420;53.574;10.040;2023-07-24T08:23:17;3.70;;;3.60;;
14665;SDS011;7420;53.574;10.040;2023-07-24T08:25:52;3.83;;;3.72;;
14665;SDS011;7420;53.574;10.040;2023-07-24T08:28:18;3.70;;;3.60;;
14665;SDS011;7420;53.574;10.040;2023-07-24T08:30:44;3.80;;;3.70;;
14665;SDS011;7420;53.574;10.040;2023-07-24T08:33:11;3.80;;;3.70;;
14665;SDS011;7420;53.574;10.040;2023-07-24T08:35:37;3.90;;;3.80;;
14665;SDS011;7420;53.574;10.040;2023-07-24T08:38:02;3.80;;;3.70;;
14665;SDS011;7420;53.574;10.040;2023-07-24T08:40:28;3.90;;;3.80;;
14665;SDS011;7420;53.574;10.040;2023-07-24T08:42:53;3.72;;;3.63;;
14665;SDS011;7420;53.574;10.040;2023-07-24T08:45:19;3.72;;;3.63;;
14665;SDS011;7420;53.574;10.040;2023-07-24T08:47:45;3.80;;;3.70;;
14665;SDS011;7420;53.574;10.040;2023-07-24T08:50:10;3.90;;;3.80;;
14665;SDS011;7420;53.574;10.040;2023-07-24T08:52:39;3.88;;;3.78;;
14665;SDS011;7420;53.574;10.040;2023-07-24T08:55:05;3.80;;;3.70;;
14665;SDS011;7420;53.574;10.040;2023-07-24T08:57:31;3.70;;;3.60;;
14665;SDS011;7420;53.574;10.040;2023-07-24T08:59:56;3.80;;;3.70;;
14665;SDS011;7420;53.574;10.040;2023-07-24T09:02:23;3.70;;;3.60;;
14665;SDS011;7420;53.574;10.040;2023-07-24T09:04:49;3.70;;;3.60;;
14665;SDS011;7420;53.574;10.040;2023-07-24T09:07:14;3.90;;;3.80;;
14665;SDS011;7420;53.574;10.040;2023-07-24T09:09:39;3.90;;;3.80;;
14665;SDS011;7420;53.574;10.040;2023-07-24T09:12:05;3.88;;;3.78;;
14665;SDS011;7420;53.574;10.040;2023-07-24T09:14:31;3.75;;;3.65;;
14665;SDS011;7420;53.574;10.040;2023-07-24T09:17:06;3.70;;;3.60;;
14665;SDS011;7420;53.574;10.040;2023-07-24T09:19:33;3.75;;;3.65;;
14665;SDS011;7420;53.574;10.040;2023-07-24T09:22:32;3.60;;;3.50;;
14665;SDS011;7420;53.574;10.040;2023-07-24T09:24:52;4.00;;;3.90;;
14665;SDS011;7420;53.574;10.040;2023-07-24T09:27:24;3.70;;;3.60;;
14665;SDS011;7420;53.574;10.040;2023-07-24T09:29:51;3.83;;;3.72;;
14665;SDS011;7420;53.574;10.040;2023-07-24T09:32:20;3.75;;;3.65;;
14665;SDS011;7420;53.574;10.040;2023-07-24T09:34:52;3.88;;;3.78;;
14665;SDS011;7420;53.574;10.040;2023-07-24T09:37:27;3.67;;;3.58;;
14665;SDS011;7420;53.574;10.040;2023-07-24T09:39:55;3.70;;;3.60;;
14665;SDS011;7420;53.574;10.040;2023-07-24T09:42:34;3.70;;;3.60;;
14665;SDS011;7420;53.574;10.040;2023-07-24T09:45:00;3.47;;;3.38;;
14665;SDS011;7420;53.574;10.040;2023-07-24T09:47:26;3.60;;;3.50;;
14665;SDS011;7420;53.574;10.040;2023-07-24T09:49:52;3.50;;;3.40;;
14665;SDS011;7420;53.574;10.040;2023-07-24T09:52:20;3.45;;;3.35;;
14665;SDS011;7420;53.574;10.040;2023-07-24T09:54:59;3.60;;;3.50;;
14665;SDS011;7420;53.574;10.040;2023-07-24T09:57:39;3.90;;;3.80;;
14665;SDS011;7420;53.574;10.040;2023-07-24T10:00:05;3.50;;;3.40;;
14665;SDS011;7420;53.574;10.040;2023-07-24T10:02:32;3.50;;;3.40;;
14665;SDS011;7420;53.574;10.040;2023-07-24T10:04:58;3.80;;;3.70;;
14665;SDS011;7420;53.574;10.040;2023-07-24T10:07:24;3.65;;;3.55;;
14665;SDS011;7420;53.574;10.040;2023-07-24T10:09:50;3.70;;;3.60;;
14665;SDS011;7420;53.574;10.040;2023-07-24T10:12:17;3.60;;;3.50;;
14665;SDS011;7420;53.574;10.040;2023-07-24T10:14:44;3.63;;;3.53;;
14665;SDS011;7420;53.574;10.040;2023-07-24T10:17:11;3.60;;;3.50;;
14665;SDS011;7420;53.574;10.040;2023-07-24T10:19:43;3.60;;;3.50;;
14665;SDS011;7420;53.574;10.040;2023-07-24T10:22:18;3.60;;;3.50;;
14665;SDS011;7420;53.574;10.040;2023-07-24T10:24:44;3.70;;;3.60;;
14665;SDS011;7420;53.574;10.040;2023-07-24T10:27:11;3.50;;;3.40;;
14665;SDS011;7420;53.574;10.040;2023-07-24T10:29:37;3.60;;;3.50;;
14665;SDS011;7420;53.574;10.040;2023-07-24T10:32:02;3.70;;;3.60;;
14665;SDS011;7420;53.574;10.040;2023-07-24T10:34:40;3.60;;;3.50;;
14665;SDS011;7420;53.574;10.040;2023-07-24T10:37:09;3.70;;;3.60;;
14665;SDS011;7420;53.574;10.040;2023-07-24T10:39:37;3.70;;;3.60;;
14665;SDS011;7420;53.574;10.040;2023-07-24T10:42:08;3.72;;;3.63;;
14665;SDS011;7420;53.574;10.040;2023-07-24T10:44:35;3.75;;;3.65;;
14665;SDS011;7420;53.574;10.040;2023-07-24T10:47:01;3.60;;;3.50;;
14665;SDS011;7420;53.574;10.040;2023-07-24T10:49:27;3.67;;;3.58;;
14665;SDS011;7420;53.574;10.040;2023-07-24T10:51:58;3.70;;;3.60;;
14665;SDS011;7420;53.574;10.040;2023-07-24T10:54:24;3.80;;;3.70;;
14665;SDS011;7420;53.574;10.040;2023-07-24T10:56:57;3.60;;;3.50;;
14665;SDS011;7420;53.574;10.040;2023-07-24T10:59:23;6.13;;;5.93;;
14665;SDS011;7420;53.574;10.040;2023-07-24T11:01:48;3.80;;;3.70;;
14665;SDS011;7420;53.574;10.040;2023-07-24T11:04:13;3.70;;;3.60;;
14665;SDS011;7420;53.574;10.040;2023-07-24T11:06:39;3.60;;;3.50;;
14665;SDS011;7420;53.574;10.040;2023-07-24T11:09:04;3.70;;;3.60;;
14665;SDS011;7420;53.574;10.040;2023-07-24T11:11:30;3.70;;;3.60;;
14665;SDS011;7420;53.574;10.040;2023-07-24T11:13:57;4.22;;;4.13;;
14665;SDS011;7420;53.574;10.040;2023-07-24T11:16:22;3.60;;;3.50;;
14665;SDS011;7420;53.574;10.040;2023-07-24T11:18:49;3.60;;;3.50;;
14665;SDS011;7420;53.574;10.040;2023-07-24T11:21:20;3.60;;;3.50;;
14665;SDS011;7420;53.574;10.040;2023-07-24T11:23:46;3.50;;;3.40;;
14665;SDS011;7420;53.574;10.040;2023-07-24T11:26:12;3.70;;;3.60;;
14665;SDS011;7420;53.574;10.040;2023-07-24T11:28:39;3.60;;;3.50;;
14665;SDS011;7420;53.574;10.040;2023-07-24T11:31:05;3.58;;;3.47;;
14665;SDS011;7420;53.574;10.040;2023-07-24T11:33:30;3.70;;;3.60;;
14665;SDS011;7420;53.574;10.040;2023-07-24T11:35:56;3.50;;;3.40;;
14665;SDS011;7420;53.574;10.040;2023-07-24T11:38:22;3.70;;;3.60;;
14665;SDS011;7420;53.574;10.040;2023-07-24T11:40:48;3.88;;;3.78;;
14665;SDS011;7420;53.574;10.040;2023-07-24T11:43:19;3.50;;;3.40;;
14665;SDS011;7420;53.574;10.040;2023-07-24T11:45:46;3.60;;;3.50;;
14665;SDS011;7420;53.574;10.040;2023-07-24T11:48:14;3.60;;;3.50;;
14665;SDS011;7420;53.574;10.040;2023-07-24T11:50:46;3.70;;;3.60;;
14665;SDS011;7420;53.574;10.040;2023-07-24T11:53:23;3.70;;;3.60;;
14665;SDS011;7420;53.574;10.040;2023-07-24T11:55:51;3.60;;;3.50;;
14665;SDS011;7420;53.574;10.040;2023-07-24T11:58:18;3.60;;;3.50;;
14665;SDS011;7420;53.574;10.040;2023-07-24T12:00:45;3.50;;;3.40;;
14665;SDS011;7420;53.574;10.040;2023-07-24T12:03:12;3.40;;;3.30;;
14665;SDS011;7420;53.574;10.040;2023-07-24T12:05:40;3.40;;;3.30;;
14665;SDS011;7420;53.574;10.040;2023-07-24T12:08:07;3.38;;;3.28;;
14665;SDS011;7420;53.574;10.040;2023-07-24T12:10:35;3.50;;;3.40;;
14665;SDS011;7420;53.574;10.040;2023-07-24T12:13:01;3.50;;;3.40;;
14665;SDS011;7420;53.574;10.040;2023-07-24T12:15:27;3.42;;;3.33;;
14665;SDS011;7420;53.574;10.040;2023-07-24T12:17:52;3.30;;;3.20;;
14665;SDS011;7420;53.574;10.040;2023-07-24T12:20:18;3.30;;;3.20;;
14665;SDS011;7420;53.574;10.040;2023-07-24T12:22:44;3.30;;;3.20;;
14665;SDS011;7420;53.574;10.040;2023-07-24T12:25:09;3.25;;;3.15;;
14665;SDS011;7420;53.574;10.040;2023-07-24T12:27:35;3.30;;;3.20;;
14665;SDS011;7420;53.574;10.040;2023-07-24T12:30:01;3.30;;;3.20;;
14665;SDS011;7420;53.574;10.040;2023-07-24T12:32:26;3.22;;;3.13;;
14665;SDS011;7420;53.574;10.040;2023-07-24T12:34:52;3.30;;;3.20;;
14665;SDS011;7420;53.574;10.040;2023-07-24T12:37:18;3.30;;;3.20;;
14665;SDS011;7420;53.574;10.040;2023-07-24T12:39:44;3.20;;;3.10;;
14665;SDS011;7420;53.574;10.040;2023-07-24T12:42:10;3.20;;;3.10;;
14665;SDS011;7420;53.574;10.040;2023-07-24T12:44:36;3.30;;;3.20;;
14665;SDS011;7420;53.574;10.040;2023-07-24T12:47:03;3.40;;;3.30;;
14665;SDS011;7420;53.574;10.040;2023-07-24T12:49:29;3.20;;;3.10;;
14665;SDS011;7420;53.574;10.040;2023-07-24T12:51:54;3.40;;;3.30;;
14665;SDS011;7420;53.574;10.040;2023-07-24T12:54:19;3.40;;;3.30;;
14665;SDS011;7420;53.574;10.040;2023-07-24T12:56:46;3.40;;;3.30;;
14665;SDS011;7420;53.574;10.040;2023-07-24T12:59:12;3.30;;;3.20;;
14665;SDS011;7420;53.574;10.040;2023-07-24T13:01:37;3.30;;;3.20;;
14665;SDS011;7420;53.574;10.040;2023-07-24T13:04:06;3.30;;;3.20;;
14665;SDS011;7420;53.574;10.040;2023-07-24T13:06:32;3.40;;;3.30;;
14665;SDS011;7420;53.574;10.040;2023-07-24T13:08:58;3.20;;;3.10;;
14665;SDS011;7420;53.574;10.040;2023-07-24T13:11:23;3.28;;;3.17;;
14665;SDS011;7420;53.574;10.040;2023-07-24T13:13:49;3.30;;;3.20;;
14665;SDS011;7420;53.574;10.040;2023-07-24T13:16:15;3.28;;;3.17;;
14665;SDS011;7420;53.574;10.040;2023-07-24T13:18:41;3.40;;;3.30;;
14665;SDS011;7420;53.574;10.040;2023-07-24T13:21:07;3.10;;;3.00;;
14665;SDS011;7420;53.574;10.040;2023-07-24T13:23:35;3.30;;;3.20;;
14665;SDS011;7420;53.574;10.040;2023-07-24T13:26:01;3.20;;;3.10;;
14665;SDS011;7420;53.574;10.040;2023-07-24T13:28:26;3.20;;;3.10;;
14665;SDS011;7420;53.574;10.040;2023-07-24T13:30:52;3.40;;;3.30;;
14665;SDS011;7420;53.574;10.040;2023-07-24T13:33:18;3.25;;;3.15;;
14665;SDS011;7420;53.574;10.040;2023-07-24T13:35:44;3.40;;;3.30;;
14665;SDS011;7420;53.574;10.040;2023-07-24T13:38:09;3.33;;;3.22;;
14665;SDS011;7420;53.574;10.040;2023-07-24T13:40:35;3.30;;;3.20;;
14665;SDS011;7420;53.574;10.040;2023-07-24T13:43:01;3.20;;;3.10;;
14665;SDS011;7420;53.574;10.040;2023-07-24T13:45:27;3.30;;;3.20;;
14665;SDS011;7420;53.574;10.040;2023-07-24T13:47:53;3.10;;;3.00;;
14665;SDS011;7420;53.574;10.040;2023-07-24T13:50:19;3.30;;;3.20;;
14665;SDS011;7420;53.574;10.040;2023-07-24T13:52:45;3.20;;;3.10;;
14665;SDS011;7420;53.574;10.040;2023-07-24T13:55:10;3.20;;;3.10;;
14665;SDS011;7420;53.574;10.040;2023-07-24T13:57:35;3.30;;;3.20;;
14665;SDS011;7420;53.574;10.040;2023-07-24T14:00:01;3.30;;;3.20;;
14665;SDS011;7420;53.574;10.040;2023-07-24T14:02:27;3.20;;;3.10;;
14665;SDS011;7420;53.574;10.040;2023-07-24T14:04:52;3.30;;;3.20;;
14665;SDS011;7420;53.574;10.040;2023-07-24T14:07:18;3.13;;;3.03;;
14665;SDS011;7420;53.574;10.040;2023-07-24T14:09:44;3.20;;;3.10;;
14665;SDS011;7420;53.574;10.040;2023-07-24T14:12:09;3.20;;;3.10;;
14665;SDS011;7420;53.574;10.040;2023-07-24T14:14:35;3.30;;;3.20;;
14665;SDS011;7420;53.574;10.040;2023-07-24T14:17:00;3.25;;;3.15;;
14665;SDS011;7420;53.574;10.040;2023-07-24T14:19:26;3.20;;;3.10;;
14665;SDS011;7420;53.574;10.040;2023-07-24T14:21:51;3.20;;;3.10;;
14665;SDS011;7420;53.574;10.040;2023-07-24T14:24:17;3.20;;;3.10;;
14665;SDS011;7420;53.574;10.040;2023-07-24T14:26:42;3.30;;;3.20;;
14665;SDS011;7420;53.574;10.040;2023-07-24T14:29:10;3.30;;;3.20;;
14665;SDS011;7420;53.574;10.040;2023-07-24T14:31:35;3.40;;;3.30;;
14665;SDS011;7420;53.574;10.040;2023-07-24T14:34:01;3.30;;;3.20;;
14665;SDS011;7420;53.574;10.040;2023-07-24T14:36:27;3.20;;;3.10;;
14665;SDS011;7420;53.574;10.040;2023-07-24T14:38:58;3.40;;;3.30;;
14665;SDS011;7420;53.574;10.040;2023-07-24T14:41:26;3.40;;;3.30;;
14665;SDS011;7420;53.574;10.040;2023-07-24T14:43:52;3.40;;;3.30;;
14665;SDS011;7420;53.574;10.040;2023-07-24T14:46:18;3.20;;;3.10;;
14665;SDS011;7420;53.574;10.040;2023-07-24T14:48:43;3.22;;;3.13;;
14665;SDS011;7420;53.574;10.040;2023-07-24T14:51:08;3.40;;;3.30;;